createdAt,value
2023-04-24T00:01:25.969Z,10.40
2023-04-24T00:03:54.482Z,10.30
2023-04-24T00:06:24.695Z,10.20
2023-04-24T00:08:52.885Z,10.20
2023-04-24T00:11:21.382Z,10.10
2023-04-24T00:13:49.684Z,10.10
2023-04-24T00:16:17.852Z,10.00
2023-04-24T00:18:48.863Z,9.90
2023-04-24T00:21:18.729Z,9.90
2023-04-24T00:23:47.010Z,9.90
2023-04-24T00:26:15.357Z,9.80
2023-04-24T00:28:45.932Z,9.70
2023-04-24T00:31:14.790Z,9.70
2023-04-24T00:33:43.234Z,9.70
2023-04-24T00:36:12.995Z,9.60
2023-04-24T00:38:41.496Z,9.80
2023-04-24T00:41:09.708Z,9.80
2023-04-24T00:43:37.907Z,9.70
2023-04-24T00:46:06.857Z,9.60
2023-04-24T00:48:36.032Z,9.60
2023-04-24T00:51:04.236Z,9.50
2023-04-24T00:53:33.965Z,9.40
2023-04-24T00:56:02.554Z,9.40
2023-04-24T00:58:31.692Z,9.40
2023-04-24T01:01:02.171Z,9.30
2023-04-24T01:03:33.284Z,9.30
2023-04-24T01:06:01.882Z,9.20
2023-04-24T01:08:31.112Z,9.20
2023-04-24T01:11:00.931Z,9.20
2023-04-24T01:13:29.794Z,9.10
2023-04-24T01:15:58.001Z,9.10
2023-04-24T01:18:26.379Z,9.00
2023-04-24T01:20:58.090Z,9.00
2023-04-24T01:23:28.308Z,8.90
2023-04-24T01:25:56.667Z,9.00
2023-04-24T01:28:25.489Z,9.00
2023-04-24T01:30:53.867Z,9.00
2023-04-24T01:33:25.159Z,9.00
2023-04-24T01:35:53.833Z,9.00
2023-04-24T01:38:21.952Z,9.10
2023-04-24T01:40:54.230Z,9.10
2023-04-24T01:43:22.554Z,9.00
2023-04-24T01:45:51.106Z,9.10
2023-04-24T01:48:19.402Z,9.10
2023-04-24T01:50:48.315Z,9.10
2023-04-24T01:53:16.712Z,9.10
2023-04-24T01:55:45.045Z,9.00
2023-04-24T01:58:16.477Z,9.10
2023-04-24T02:00:44.662Z,9.10
2023-04-24T02:03:12.988Z,9.00
2023-04-24T02:05:41.321Z,9.00
2023-04-24T02:08:09.533Z,8.90
2023-04-24T02:10:39.628Z,8.90
2023-04-24T02:13:07.946Z,8.80
2023-04-24T02:15:37.988Z,8.80
2023-04-24T02:18:07.871Z,8.70
2023-04-24T02:20:36.522Z,8.70
2023-04-24T02:23:04.710Z,8.60
2023-04-24T02:25:32.909Z,8.60
2023-04-24T02:28:01.087Z,8.50
2023-04-24T02:30:29.366Z,8.50
2023-04-24T02:32:58.992Z,8.50
2023-04-24T02:35:27.377Z,8.40
2023-04-24T02:37:55.636Z,8.40
2023-04-24T02:40:23.924Z,8.40
2023-04-24T02:42:52.097Z,8.40
2023-04-24T02:45:20.212Z,8.40
2023-04-24T02:47:48.385Z,8.40
2023-04-24T02:50:18.129Z,8.40
2023-04-24T02:52:46.467Z,8.40
2023-04-24T02:55:15.440Z,8.50
2023-04-24T02:57:43.616Z,8.50
2023-04-24T03:00:13.046Z,8.50
2023-04-24T03:02:41.453Z,8.50
2023-04-24T03:05:12.962Z,8.50
2023-04-24T03:07:42.509Z,8.50
2023-04-24T03:10:11.379Z,8.40
2023-04-24T03:12:39.525Z,8.30
2023-04-24T03:15:09.163Z,8.30
2023-04-24T03:17:39.058Z,8.30
2023-04-24T03:20:09.215Z,8.30
2023-04-24T03:22:38.232Z,8.20
2023-04-24T03:25:11.556Z,8.20
2023-04-24T03:27:40.361Z,8.10
2023-04-24T03:30:27.246Z,8.00
2023-04-24T03:33:00.452Z,8.00
2023-04-24T03:35:32.234Z,8.00
2023-04-24T03:38:05.325Z,8.10
2023-04-24T03:40:53.348Z,8.00
2023-04-24T03:43:36.685Z,7.90
2023-04-24T03:46:06.595Z,8.00
2023-04-24T03:48:38.851Z,7.90
2023-04-24T03:51:08.634Z,7.90
2023-04-24T03:53:38.634Z,7.90
2023-04-24T03:56:08.800Z,7.90
2023-04-24T03:58:37.337Z,7.90
2023-04-24T04:01:06.660Z,7.90
2023-04-24T04:04:07.288Z,7.90
2023-04-24T04:06:38.236Z,8.00
2023-04-24T04:09:08.192Z,8.00
2023-04-24T04:11:39.135Z,8.10
2023-04-24T04:14:07.437Z,8.00
2023-04-24T04:16:38.445Z,8.00
2023-04-24T04:19:10.615Z,8.10
2023-04-24T04:21:38.840Z,8.20
2023-04-24T04:24:27.632Z,8.30
2023-04-24T04:26:59.227Z,8.30
2023-04-24T04:29:34.144Z,8.60
2023-04-24T04:32:04.117Z,8.90
2023-04-24T04:34:34.197Z,9.10
2023-04-24T04:37:03.171Z,9.30
2023-04-24T04:39:51.549Z,9.50
2023-04-24T04:42:24.808Z,9.70
2023-04-24T04:44:53.594Z,9.80
2023-04-24T04:47:29.652Z,9.80
2023-04-24T04:49:59.029Z,9.90
2023-04-24T04:52:29.442Z,10.00
2023-04-24T04:55:07.579Z,10.00
2023-04-24T04:58:01.358Z,10.10
2023-04-24T05:00:37.025Z,10.20
2023-04-24T05:03:20.887Z,10.40
2023-04-24T05:05:55.259Z,10.50
2023-04-24T05:08:27.563Z,10.60
2023-04-24T05:10:57.295Z,10.80
2023-04-24T05:13:39.338Z,10.90
2023-04-24T05:16:20.145Z,11.00
2023-04-24T05:18:50.065Z,11.20
2023-04-24T05:21:22.096Z,11.30
2023-04-24T05:23:53.035Z,11.40
2023-04-24T05:26:36.714Z,11.60
2023-04-24T05:29:07.437Z,11.70
2023-04-24T05:31:38.636Z,11.70
2023-04-24T05:34:07.527Z,11.90
2023-04-24T05:36:36.744Z,11.90
2023-04-24T05:39:08.096Z,12.10
2023-04-24T05:41:36.949Z,12.30
2023-04-24T05:44:05.257Z,12.50
2023-04-24T05:46:34.899Z,12.70
2023-04-24T05:49:03.484Z,12.80
2023-04-24T05:51:33.772Z,13.40
2023-04-24T05:54:02.772Z,14.10
2023-04-24T05:56:31.829Z,15.00
2023-04-24T05:59:01.828Z,15.70
2023-04-24T06:01:30.771Z,16.20
2023-04-24T06:04:09.629Z,16.70
2023-04-24T06:06:38.326Z,17.10
2023-04-24T06:09:06.623Z,17.50
2023-04-24T06:11:35.965Z,18.30
2023-04-24T06:14:05.717Z,18.10
2023-04-24T06:16:40.179Z,18.30
2023-04-24T06:19:21.692Z,18.70
2023-04-24T06:21:49.992Z,19.00
2023-04-24T06:24:18.508Z,19.50
2023-04-24T06:26:46.757Z,19.60
2023-04-24T06:29:15.020Z,19.60
2023-04-24T06:31:43.309Z,20.30
2023-04-24T06:34:12.322Z,21.20
2023-04-24T06:36:42.110Z,21.50
2023-04-24T06:39:10.521Z,21.80
2023-04-24T06:41:41.011Z,22.20
2023-04-24T06:44:11.512Z,22.50
2023-04-24T06:46:41.687Z,23.00
2023-04-24T06:49:10.322Z,22.90
2023-04-24T06:51:38.544Z,23.20
2023-04-24T06:54:08.327Z,22.80
2023-04-24T06:56:36.584Z,23.50
2023-04-24T06:59:04.878Z,24.00
2023-04-24T07:01:33.124Z,23.20
2023-04-24T07:04:01.781Z,23.50
2023-04-24T07:06:31.647Z,23.60
2023-04-24T07:09:00.787Z,24.00
2023-04-24T07:11:30.583Z,23.70
2023-04-24T07:13:59.072Z,23.20
2023-04-24T07:16:27.373Z,23.40
2023-04-24T07:18:55.713Z,23.70
2023-04-24T07:21:24.067Z,24.20
2023-04-24T07:23:52.244Z,23.90
2023-04-24T07:26:20.586Z,24.70
2023-04-24T07:28:50.361Z,24.70
2023-04-24T07:31:18.640Z,25.20
2023-04-24T07:33:46.822Z,25.90
2023-04-24T07:36:18.015Z,25.50
2023-04-24T07:38:46.504Z,25.60
2023-04-24T07:41:14.809Z,25.30
2023-04-24T07:43:43.087Z,26.00
2023-04-24T07:46:12.826Z,25.60
2023-04-24T07:48:41.091Z,25.40
2023-04-24T07:51:11.204Z,25.50
2023-04-24T07:53:39.421Z,25.30
2023-04-24T07:56:07.721Z,25.20
2023-04-24T07:58:36.342Z,25.70
2023-04-24T08:01:04.599Z,25.60
2023-04-24T08:03:34.374Z,26.10
2023-04-24T08:06:03.027Z,26.50
2023-04-24T08:08:31.470Z,27.20
2023-04-24T08:10:59.860Z,26.80
2023-04-24T08:13:28.053Z,26.90
2023-04-24T08:15:56.359Z,27.30
2023-04-24T08:18:24.805Z,27.00
2023-04-24T08:20:54.496Z,27.20
2023-04-24T08:23:23.144Z,27.30
2023-04-24T08:25:51.374Z,26.70
2023-04-24T08:28:21.328Z,26.20
2023-04-24T08:30:49.836Z,26.40
2023-04-24T08:33:18.079Z,25.60
2023-04-24T08:35:46.315Z,25.70
2023-04-24T08:38:16.002Z,26.00
2023-04-24T08:40:47.113Z,26.00
2023-04-24T08:43:16.787Z,26.40
2023-04-24T08:45:45.157Z,26.80
2023-04-24T08:48:27.430Z,27.10
2023-04-24T08:50:59.935Z,26.80
2023-04-24T08:53:30.788Z,26.40
2023-04-24T08:55:59.134Z,26.10
2023-04-24T08:58:28.147Z,25.60
2023-04-24T09:00:57.381Z,25.20
2023-04-24T09:03:26.780Z,24.40
2023-04-24T09:05:56.606Z,24.00
2023-04-24T09:08:27.134Z,23.20
2023-04-24T09:10:59.316Z,22.80
2023-04-24T09:13:27.946Z,23.10
2023-04-24T09:15:58.479Z,23.20
2023-04-24T09:18:27.952Z,24.30
2023-04-24T09:21:04.966Z,25.00
2023-04-24T09:23:34.251Z,25.80
2023-04-24T09:26:06.892Z,25.80
2023-04-24T09:28:38.031Z,25.50
2023-04-24T09:31:08.471Z,25.30
2023-04-24T09:33:37.162Z,24.70
2023-04-24T09:36:07.138Z,24.50
2023-04-24T09:38:36.839Z,24.70
2023-04-24T09:41:08.505Z,24.50
2023-04-24T09:43:37.854Z,24.20
2023-04-24T09:46:10.715Z,24.00
2023-04-24T09:48:40.182Z,23.80
2023-04-24T09:51:11.820Z,24.30
2023-04-24T09:53:41.327Z,24.60
2023-04-24T09:56:15.372Z,24.90
2023-04-24T09:58:43.575Z,25.30
2023-04-24T10:01:11.929Z,25.50
2023-04-24T10:03:40.167Z,25.60
2023-04-24T10:06:10.269Z,25.60
2023-04-24T10:08:39.484Z,25.50
2023-04-24T10:11:08.622Z,25.00
2023-04-24T10:13:38.934Z,24.60
2023-04-24T10:16:08.394Z,25.00
2023-04-24T10:18:37.634Z,24.90
2023-04-24T10:21:05.893Z,24.80
2023-04-24T10:23:34.856Z,25.00
2023-04-24T10:26:03.585Z,24.90
2023-04-24T10:28:34.271Z,24.80
2023-04-24T10:31:04.196Z,25.00
2023-04-24T10:33:33.205Z,25.10
2023-04-24T10:36:02.225Z,25.30
2023-04-24T10:38:31.588Z,25.30
2023-04-24T10:41:09.318Z,25.60
2023-04-24T10:43:37.786Z,25.90
2023-04-24T10:46:08.509Z,26.40
2023-04-24T10:48:36.786Z,26.30
2023-04-24T10:51:05.255Z,25.90
2023-04-24T10:53:37.090Z,26.00
2023-04-24T10:56:07.430Z,26.20
2023-04-24T10:58:41.250Z,26.30
2023-04-24T11:01:11.757Z,26.20
2023-04-24T11:03:43.058Z,26.10
2023-04-24T11:06:11.679Z,26.30
2023-04-24T11:08:41.392Z,26.20
2023-04-24T11:11:14.152Z,26.00
2023-04-24T11:14:07.375Z,25.90
2023-04-24T11:16:41.135Z,25.20
2023-04-24T11:19:11.541Z,25.20
2023-04-24T11:21:44.537Z,25.60
2023-04-24T11:24:32.846Z,25.80
2023-04-24T11:27:07.813Z,26.50
2023-04-24T11:29:44.950Z,26.40
2023-04-24T11:32:32.267Z,26.10
2023-04-24T11:35:02.541Z,25.80
2023-04-24T11:37:35.857Z,25.00
2023-04-24T11:40:05.729Z,24.40
2023-04-24T11:42:36.747Z,23.90
2023-04-24T11:45:10.521Z,23.70
2023-04-24T11:47:41.231Z,23.70
2023-04-24T11:50:12.005Z,23.70
2023-04-24T11:52:42.220Z,23.80
2023-04-24T11:55:24.579Z,23.90
2023-04-24T11:57:58.445Z,23.90
2023-04-24T12:00:28.532Z,23.70
2023-04-24T12:03:08.589Z,23.60
2023-04-24T12:05:37.686Z,23.50
2023-04-24T12:08:07.661Z,23.30
2023-04-24T12:10:36.814Z,22.90
2023-04-24T12:13:05.447Z,22.80
2023-04-24T12:15:33.878Z,22.70
2023-04-24T12:18:02.226Z,22.60
2023-04-24T12:20:33.430Z,22.40
2023-04-24T12:23:03.176Z,22.40
2023-04-24T12:25:33.054Z,22.30
2023-04-24T12:28:13.054Z,22.30
2023-04-24T12:30:45.353Z,22.20
2023-04-24T12:33:13.757Z,22.20
2023-04-24T12:35:43.550Z,22.10
2023-04-24T12:38:13.930Z,22.10
2023-04-24T12:40:43.155Z,22.20
2023-04-24T12:43:18.548Z,22.20
2023-04-24T12:45:47.032Z,22.30
2023-04-24T12:48:16.104Z,22.60
2023-04-24T12:50:47.286Z,23.10
2023-04-24T12:53:16.438Z,23.50
2023-04-24T12:55:45.660Z,23.80
2023-04-24T12:58:13.827Z,24.00
2023-04-24T13:00:44.550Z,24.20
2023-04-24T13:03:13.684Z,24.40
2023-04-24T13:05:42.332Z,24.60
2023-04-24T13:08:13.848Z,24.60
2023-04-24T13:10:42.737Z,24.40
2023-04-24T13:13:12.810Z,24.10
2023-04-24T13:15:41.215Z,23.80
2023-04-24T13:18:09.540Z,23.50
2023-04-24T13:20:37.845Z,22.60
2023-04-24T13:23:06.212Z,22.20
2023-04-24T13:25:38.488Z,22.00
2023-04-24T13:28:06.772Z,21.80
2023-04-24T13:30:36.385Z,21.50
2023-04-24T13:33:04.971Z,21.00
2023-04-24T13:35:33.201Z,21.00
2023-04-24T13:38:02.319Z,21.10
2023-04-24T13:40:30.555Z,21.10
2023-04-24T13:43:00.228Z,20.90
2023-04-24T13:45:28.594Z,20.80
2023-04-24T13:47:58.018Z,20.80
2023-04-24T13:50:26.565Z,20.50
2023-04-24T13:52:55.291Z,20.10
2023-04-24T13:55:23.526Z,18.90
2023-04-24T13:57:53.247Z,17.80
2023-04-24T14:00:23.561Z,17.20
2023-04-24T14:02:51.910Z,16.80
2023-04-24T14:05:22.074Z,16.60
2023-04-24T14:07:50.380Z,16.60
2023-04-24T14:10:18.714Z,16.60
2023-04-24T14:12:47.115Z,16.80
2023-04-24T14:15:15.670Z,16.70
2023-04-24T14:17:45.422Z,16.80
2023-04-24T14:20:14.865Z,16.90
2023-04-24T14:22:43.191Z,17.10
2023-04-24T14:25:11.789Z,17.40
2023-04-24T14:27:41.140Z,17.50
2023-04-24T14:30:10.445Z,17.80
2023-04-24T14:32:40.484Z,18.00
2023-04-24T14:35:10.966Z,18.30
2023-04-24T14:37:42.157Z,18.60
2023-04-24T14:40:29.915Z,18.80
2023-04-24T14:42:59.944Z,19.10
2023-04-24T14:45:28.689Z,19.40
2023-04-24T14:47:58.736Z,19.60
2023-04-24T14:50:29.383Z,19.80
2023-04-24T14:52:58.701Z,19.90
2023-04-24T14:55:27.581Z,20.10
2023-04-24T14:57:55.939Z,20.30
2023-04-24T15:00:25.387Z,20.50
2023-04-24T15:02:53.835Z,20.60
2023-04-24T15:05:24.132Z,20.70
2023-04-24T15:07:54.112Z,20.90
2023-04-24T15:10:23.985Z,20.70
2023-04-24T15:12:52.303Z,20.70
2023-04-24T15:15:20.638Z,20.80
2023-04-24T15:17:48.948Z,20.80
2023-04-24T15:20:17.465Z,20.70
2023-04-24T15:22:45.632Z,20.70
2023-04-24T15:25:15.301Z,20.70
2023-04-24T15:27:44.433Z,20.60
2023-04-24T15:30:13.972Z,20.60
2023-04-24T15:32:42.321Z,20.60
2023-04-24T15:35:12.487Z,20.60
2023-04-24T15:37:41.247Z,20.70
2023-04-24T15:40:12.323Z,20.70
2023-04-24T15:42:42.932Z,20.80
2023-04-24T15:45:12.690Z,20.70
2023-04-24T15:47:41.135Z,20.70
2023-04-24T15:50:14.226Z,20.70
2023-04-24T15:52:43.124Z,20.70
2023-04-24T15:55:13.340Z,20.70
2023-04-24T15:57:43.925Z,20.70
2023-04-24T16:00:13.821Z,20.70
2023-04-24T16:02:42.267Z,20.60
2023-04-24T16:05:11.231Z,20.60
2023-04-24T16:07:40.194Z,20.50
2023-04-24T16:10:10.222Z,20.50
2023-04-24T16:12:38.506Z,20.40
2023-04-24T16:15:09.237Z,20.40
2023-04-24T16:17:37.596Z,20.40
2023-04-24T16:20:07.677Z,20.40
2023-04-24T16:22:36.023Z,20.30
2023-04-24T16:25:04.351Z,20.30
2023-04-24T16:27:32.588Z,20.20
2023-04-24T16:30:00.819Z,20.20
2023-04-24T16:32:31.111Z,20.10
2023-04-24T16:34:59.537Z,20.10
2023-04-24T16:37:28.537Z,20.00
2023-04-24T16:39:56.952Z,20.00
2023-04-24T16:42:25.465Z,19.90
2023-04-24T16:44:53.846Z,20.00
2023-04-24T16:47:22.195Z,19.80
2023-04-24T16:49:52.409Z,19.80
2023-04-24T16:52:20.697Z,19.80
2023-04-24T16:54:49.160Z,19.90
2023-04-24T16:57:17.452Z,20.00
2023-04-24T16:59:46.027Z,19.80
2023-04-24T17:02:14.341Z,19.90
2023-04-24T17:04:42.759Z,19.80
2023-04-24T17:07:12.558Z,19.80
2023-04-24T17:09:40.923Z,19.70
2023-04-24T17:12:10.986Z,19.60
2023-04-24T17:14:39.189Z,19.50
2023-04-24T17:17:07.583Z,19.40
2023-04-24T17:19:35.882Z,19.30
2023-04-24T17:22:05.937Z,19.20
2023-04-24T17:24:36.354Z,19.00
2023-04-24T17:27:13.766Z,18.90
2023-04-24T17:29:43.668Z,18.70
2023-04-24T17:32:12.037Z,18.60
2023-04-24T17:34:40.835Z,18.40
2023-04-24T17:37:09.214Z,18.20
2023-04-24T17:39:38.881Z,18.00
2023-04-24T17:42:07.500Z,17.80
2023-04-24T17:44:36.459Z,17.70
2023-04-24T17:47:05.140Z,17.60
2023-04-24T17:49:34.264Z,17.50
2023-04-24T17:52:02.586Z,17.30
2023-04-24T17:54:30.782Z,17.10
2023-04-24T17:57:00.607Z,17.00
2023-04-24T17:59:28.888Z,16.80
2023-04-24T18:01:57.961Z,16.70
2023-04-24T18:04:27.182Z,16.50
2023-04-24T18:06:55.570Z,16.40
2023-04-24T18:09:23.847Z,16.20
2023-04-24T18:11:52.171Z,16.10
2023-04-24T18:14:21.717Z,16.00
2023-04-24T18:16:49.908Z,15.80
2023-04-24T18:19:18.268Z,15.70
2023-04-24T18:21:46.419Z,15.60
2023-04-24T18:24:14.688Z,15.40
2023-04-24T18:26:42.936Z,15.30
2023-04-24T18:29:11.192Z,15.20
2023-04-24T18:31:41.009Z,15.10
2023-04-24T18:34:09.196Z,15.00
2023-04-24T18:36:37.456Z,14.90
2023-04-24T18:39:06.018Z,14.80
2023-04-24T18:41:35.341Z,14.70
2023-04-24T18:44:03.660Z,14.60
2023-04-24T18:46:37.885Z,14.50
2023-04-24T18:49:07.712Z,14.40
2023-04-24T18:51:46.646Z,14.30
2023-04-24T18:54:21.269Z,14.30
2023-04-24T18:56:49.627Z,14.30
2023-04-24T18:59:17.810Z,14.20
2023-04-24T19:01:46.223Z,14.20
2023-04-24T19:04:16.084Z,14.10
2023-04-24T19:06:44.512Z,14.10
2023-04-24T19:09:12.715Z,14.10
2023-04-24T19:11:41.835Z,14.00
2023-04-24T19:14:11.104Z,13.90
2023-04-24T19:16:39.391Z,13.90
2023-04-24T19:19:07.726Z,13.80
2023-04-24T19:21:37.436Z,13.80
2023-04-24T19:24:06.080Z,13.70
2023-04-24T19:26:34.510Z,13.70
2023-04-24T19:29:03.445Z,13.70
2023-04-24T19:31:31.768Z,13.90
2023-04-24T19:34:00.117Z,13.90
2023-04-24T19:36:28.613Z,14.00
2023-04-24T19:38:58.297Z,14.10
2023-04-24T19:41:26.582Z,14.30
2023-04-24T19:43:54.853Z,14.40
2023-04-24T19:46:23.411Z,14.40
2023-04-24T19:48:52.238Z,14.50
2023-04-24T19:51:20.724Z,14.40
2023-04-24T19:53:49.541Z,14.40
2023-04-24T19:56:19.205Z,14.40
2023-04-24T19:58:47.690Z,14.30
2023-04-24T20:01:16.252Z,14.30
2023-04-24T20:03:44.885Z,14.20
2023-04-24T20:06:13.227Z,14.10
2023-04-24T20:08:43.171Z,14.00
2023-04-24T20:11:11.801Z,13.90
2023-04-24T20:13:41.422Z,13.90
2023-04-24T20:16:11.320Z,13.80
2023-04-24T20:18:39.885Z,13.80
2023-04-24T20:21:08.197Z,13.70
2023-04-24T20:23:36.710Z,13.60
2023-04-24T20:26:05.217Z,13.50
2023-04-24T20:28:33.441Z,13.40
2023-04-24T20:31:04.509Z,13.30
2023-04-24T20:33:32.764Z,13.20
2023-04-24T20:36:00.967Z,13.30
2023-04-24T20:38:29.674Z,13.50
2023-04-24T20:40:58.575Z,13.50
2023-04-24T20:43:29.017Z,13.60
2023-04-24T20:45:59.446Z,13.60
2023-04-24T20:48:29.215Z,13.50
2023-04-24T20:50:57.552Z,13.40
2023-04-24T20:53:25.922Z,13.40
2023-04-24T20:55:54.202Z,13.30
2023-04-24T20:58:23.928Z,13.20
2023-04-24T21:00:52.885Z,13.10
2023-04-24T21:03:21.386Z,13.00
2023-04-24T21:05:51.285Z,12.90
2023-04-24T21:08:19.523Z,12.90
2023-04-24T21:10:47.740Z,12.80
2023-04-24T21:13:15.908Z,12.70
2023-04-24T21:15:44.474Z,12.60
2023-04-24T21:18:12.994Z,12.50
2023-04-24T21:20:41.445Z,12.40
2023-04-24T21:23:11.085Z,12.30
2023-04-24T21:25:40.020Z,12.20
2023-04-24T21:28:08.809Z,12.10
2023-04-24T21:30:37.117Z,12.10
2023-04-24T21:33:05.499Z,12.00
2023-04-24T21:35:34.249Z,11.90
2023-04-24T21:38:02.557Z,11.80
2023-04-24T21:40:32.263Z,11.70
2023-04-24T21:43:00.689Z,11.70
2023-04-24T21:45:28.936Z,11.60
2023-04-24T21:47:58.573Z,11.60
2023-04-24T21:50:26.891Z,11.50
2023-04-24T21:52:55.077Z,11.50
2023-04-24T21:55:23.301Z,11.50
2023-04-24T21:57:52.983Z,11.50
2023-04-24T22:00:21.525Z,11.50
2023-04-24T22:02:51.256Z,11.50
2023-04-24T22:05:20.460Z,11.60
2023-04-24T22:07:50.690Z,11.60
2023-04-24T22:10:19.507Z,11.60
2023-04-24T22:12:48.232Z,11.50
2023-04-24T22:15:17.843Z,11.60
2023-04-24T22:17:46.220Z,11.70
2023-04-24T22:20:15.095Z,11.70
2023-04-24T22:22:43.547Z,11.80
2023-04-24T22:25:11.980Z,11.90
2023-04-24T22:27:41.254Z,12.20
2023-04-24T22:30:11.167Z,12.30
2023-04-24T22:32:40.876Z,12.40
2023-04-24T22:35:10.366Z,12.50
2023-04-24T22:37:38.732Z,12.70
2023-04-24T22:40:08.621Z,12.80
2023-04-24T22:42:37.219Z,12.90
2023-04-24T22:45:06.186Z,12.90
2023-04-24T22:47:34.418Z,12.90
2023-04-24T22:50:06.032Z,12.80
2023-04-24T22:52:35.709Z,12.80
2023-04-24T22:55:04.045Z,12.70
2023-04-24T22:57:32.267Z,12.70
2023-04-24T23:00:00.708Z,12.70
2023-04-24T23:02:29.703Z,12.60
2023-04-24T23:04:57.903Z,12.60
2023-04-24T23:07:29.075Z,12.50
2023-04-24T23:09:57.238Z,12.50
2023-04-24T23:12:25.777Z,12.50
2023-04-24T23:14:54.615Z,12.50
2023-04-24T23:17:23.047Z,12.50
2023-04-24T23:19:51.315Z,12.40
2023-04-24T23:22:19.584Z,12.40
2023-04-24T23:24:49.226Z,12.40
2023-04-24T23:27:17.563Z,12.30
2023-04-24T23:29:45.890Z,12.30
2023-04-24T23:32:14.178Z,12.20
2023-04-24T23:34:42.465Z,12.20
2023-04-24T23:37:10.847Z,12.20
2023-04-24T23:39:39.127Z,12.20
2023-04-24T23:42:08.899Z,12.10
2023-04-24T23:44:37.248Z,12.10
2023-04-24T23:47:05.404Z,12.00
2023-04-24T23:49:33.609Z,12.00
2023-04-24T23:52:01.858Z,11.90
2023-04-24T23:54:30.098Z,11.80
2023-04-24T23:56:58.374Z,11.80
2023-04-24T23:59:31.563Z,11.80
